sensor_id;sensor_type;location;lat;lon;timestamp;temperature;humidity
30371;DHT22;17164;48.590;11.410;2022-09-09T00:09:46;14.10;99.90
30371;DHT22;17164;48.590;11.410;2022-09-09T00:12:37;14.10;99.90
30371;DHT22;17164;48.590;11.410;2022-09-09T00:15:07;14.10;99.90
30371;DHT22;17164;48.590;11.410;2022-09-09T00:23:35;14.10;99.90
30371;DHT22;17164;48.590;11.410;2022-09-09T00:26:48;14.00;99.90
30371;DHT22;17164;48.590;11.410;2022-09-09T00:29:33;13.90;99.90
30371;DHT22;17164;48.590;11.410;2022-09-09T00:32:13;13.90;99.90
30371;DHT22;17164;48.590;11.410;2022-09-09T00:34:52;13.80;99.90
30371;DHT22;17164;48.590;11.410;2022-09-09T00:37:20;13.80;99.90
30371;DHT22;17164;48.590;11.410;2022-09-09T00:39:48;13.80;99.90
30371;DHT22;17164;48.590;11.410;2022-09-09T00:47:53;13.70;99.90
30371;DHT22;17164;48.590;11.410;2022-09-09T00:53:42;13.70;99.90
30371;DHT22;17164;48.590;11.410;2022-09-09T00:56:13;13.70;99.90
30371;DHT22;17164;48.590;11.410;2022-09-09T01:01:21;13.70;99.90
30371;DHT22;17164;48.590;11.410;2022-09-09T01:03:54;13.70;99.90
30371;DHT22;17164;48.590;11.410;2022-09-09T01:06:35;13.60;99.90
30371;DHT22;17164;48.590;11.410;2022-09-09T01:12:40;13.60;99.90
30371;DHT22;17164;48.590;11.410;2022-09-09T01:20:23;13.50;99.90
30371;DHT22;17164;48.590;11.410;2022-09-09T01:23:19;13.60;99.90
30371;DHT22;17164;48.590;11.410;2022-09-09T01:26:13;13.50;99.90
30371;DHT22;17164;48.590;11.410;2022-09-09T01:28:43;13.60;99.90
30371;DHT22;17164;48.590;11.410;2022-09-09T01:31:13;13.60;99.90
30371;DHT22;17164;48.590;11.410;2022-09-09T01:33:40;13.60;99.90
30371;DHT22;17164;48.590;11.410;2022-09-09T01:36:26;13.60;99.90
30371;DHT22;17164;48.590;11.410;2022-09-09T01:38:53;13.60;99.90
30371;DHT22;17164;48.590;11.410;2022-09-09T01:41:19;13.70;99.90
30371;DHT22;17164;48.590;11.410;2022-09-09T01:43:45;13.60;99.90
30371;DHT22;17164;48.590;11.410;2022-09-09T01:46:12;13.70;99.90
30371;DHT22;17164;48.590;11.410;2022-09-09T01:48:37;13.80;99.90
30371;DHT22;17164;48.590;11.410;2022-09-09T01:51:04;13.80;99.90
30371;DHT22;17164;48.590;11.410;2022-09-09T01:53:30;13.90;99.90
30371;DHT22;17164;48.590;11.410;2022-09-09T01:59:07;14.00;99.90
30371;DHT22;17164;48.590;11.410;2022-09-09T02:04:42;14.00;99.90
30371;DHT22;17164;48.590;11.410;2022-09-09T02:07:41;14.00;99.90
30371;DHT22;17164;48.590;11.410;2022-09-09T02:10:20;13.90;99.90
30371;DHT22;17164;48.590;11.410;2022-09-09T02:12:59;13.90;99.90
30371;DHT22;17164;48.590;11.410;2022-09-09T02:18:07;13.90;99.90
30371;DHT22;17164;48.590;11.410;2022-09-09T02:20:36;13.80;99.90
30371;DHT22;17164;48.590;11.410;2022-09-09T02:23:04;13.80;99.90
30371;DHT22;17164;48.590;11.410;2022-09-09T02:25:30;13.80;99.90
30371;DHT22;17164;48.590;11.410;2022-09-09T02:27:56;13.80;99.90
30371;DHT22;17164;48.590;11.410;2022-09-09T02:30:27;13.80;99.90
30371;DHT22;17164;48.590;11.410;2022-09-09T02:32:56;13.80;99.90
30371;DHT22;17164;48.590;11.410;2022-09-09T02:35:24;13.70;99.90
30371;DHT22;17164;48.590;11.410;2022-09-09T02:37:53;13.70;99.90
30371;DHT22;17164;48.590;11.410;2022-09-09T02:40:20;13.70;99.90
30371;DHT22;17164;48.590;11.410;2022-09-09T02:42:48;13.70;99.90
30371;DHT22;17164;48.590;11.410;2022-09-09T02:45:18;13.60;99.90
30371;DHT22;17164;48.590;11.410;2022-09-09T02:48:17;13.60;99.90
30371;DHT22;17164;48.590;11.410;2022-09-09T02:51:19;13.60;99.90
30371;DHT22;17164;48.590;11.410;2022-09-09T02:54:29;13.50;99.90
30371;DHT22;17164;48.590;11.410;2022-09-09T02:57:39;13.50;99.90
30371;DHT22;17164;48.590;11.410;2022-09-09T02:59:46;13.50;99.90
30371;DHT22;17164;48.590;11.410;2022-09-09T03:02:13;13.50;99.90
30371;DHT22;17164;48.590;11.410;2022-09-09T03:04:39;13.40;99.90
30371;DHT22;17164;48.590;11.410;2022-09-09T03:07:05;13.40;99.90
30371;DHT22;17164;48.590;11.410;2022-09-09T03:09:31;13.30;99.90
30371;DHT22;17164;48.590;11.410;2022-09-09T03:11:58;13.30;99.90
30371;DHT22;17164;48.590;11.410;2022-09-09T03:14:24;13.40;99.90
30371;DHT22;17164;48.590;11.410;2022-09-09T03:16:54;13.40;99.90
30371;DHT22;17164;48.590;11.410;2022-09-09T03:19:20;13.50;99.90
30371;DHT22;17164;48.590;11.410;2022-09-09T03:21:46;13.50;99.90
30371;DHT22;17164;48.590;11.410;2022-09-09T03:24:13;13.50;99.90
30371;DHT22;17164;48.590;11.410;2022-09-09T03:26:40;13.50;99.90
30371;DHT22;17164;48.590;11.410;2022-09-09T03:29:06;13.50;99.90
30371;DHT22;17164;48.590;11.410;2022-09-09T03:31:33;13.50;99.90
30371;DHT22;17164;48.590;11.410;2022-09-09T03:33:59;13.50;99.90
30371;DHT22;17164;48.590;11.410;2022-09-09T03:36:26;13.50;99.90
30371;DHT22;17164;48.590;11.410;2022-09-09T03:38:52;13.50;99.90
30371;DHT22;17164;48.590;11.410;2022-09-09T03:41:19;13.40;99.90
30371;DHT22;17164;48.590;11.410;2022-09-09T03:43:45;13.40;99.90
30371;DHT22;17164;48.590;11.410;2022-09-09T03:46:10;13.30;99.90
30371;DHT22;17164;48.590;11.410;2022-09-09T03:48:36;13.30;99.90
30371;DHT22;17164;48.590;11.410;2022-09-09T03:51:02;13.30;99.90
30371;DHT22;17164;48.590;11.410;2022-09-09T03:53:29;13.30;99.90
30371;DHT22;17164;48.590;11.410;2022-09-09T03:55:55;13.20;99.90
30371;DHT22;17164;48.590;11.410;2022-09-09T03:58:24;13.20;99.90
30371;DHT22;17164;48.590;11.410;2022-09-09T04:00:58;13.10;99.90
30371;DHT22;17164;48.590;11.410;2022-09-09T04:03:25;13.20;99.90
30371;DHT22;17164;48.590;11.410;2022-09-09T04:05:55;13.10;99.90
30371;DHT22;17164;48.590;11.410;2022-09-09T04:08:21;13.10;99.90
30371;DHT22;17164;48.590;11.410;2022-09-09T04:10:50;13.10;99.90
30371;DHT22;17164;48.590;11.410;2022-09-09T04:13:17;13.10;99.90
30371;DHT22;17164;48.590;11.410;2022-09-09T04:15:44;13.10;99.90
30371;DHT22;17164;48.590;11.410;2022-09-09T04:18:15;13.10;99.90
30371;DHT22;17164;48.590;11.410;2022-09-09T04:20:41;13.10;99.90
30371;DHT22;17164;48.590;11.410;2022-09-09T04:23:08;13.10;99.90
30371;DHT22;17164;48.590;11.410;2022-09-09T04:25:34;13.10;99.90
30371;DHT22;17164;48.590;11.410;2022-09-09T04:28:00;13.00;99.90
30371;DHT22;17164;48.590;11.410;2022-09-09T04:30:26;13.00;99.90
30371;DHT22;17164;48.590;11.410;2022-09-09T04:32:52;13.00;99.90
30371;DHT22;17164;48.590;11.410;2022-09-09T04:35:18;13.00;99.90
30371;DHT22;17164;48.590;11.410;2022-09-09T04:37:45;13.00;99.90
30371;DHT22;17164;48.590;11.410;2022-09-09T04:40:11;13.00;99.90
30371;DHT22;17164;48.590;11.410;2022-09-09T04:42:37;13.00;99.90
30371;DHT22;17164;48.590;11.410;2022-09-09T04:45:04;13.00;99.90
30371;DHT22;17164;48.590;11.410;2022-09-09T04:47:30;13.00;99.90
30371;DHT22;17164;48.590;11.410;2022-09-09T04:49:56;13.00;99.90
30371;DHT22;17164;48.590;11.410;2022-09-09T04:52:22;13.00;99.90
30371;DHT22;17164;48.590;11.410;2022-09-09T04:54:47;13.00;99.90
30371;DHT22;17164;48.590;11.410;2022-09-09T04:57:13;13.00;99.90
30371;DHT22;17164;48.590;11.410;2022-09-09T04:59:39;13.00;99.90
30371;DHT22;17164;48.590;11.410;2022-09-09T05:02:05;13.10;99.90
30371;DHT22;17164;48.590;11.410;2022-09-09T05:04:31;13.00;99.90
30371;DHT22;17164;48.590;11.410;2022-09-09T05:06:58;13.00;99.90
30371;DHT22;17164;48.590;11.410;2022-09-09T05:09:24;13.10;99.90
30371;DHT22;17164;48.590;11.410;2022-09-09T05:11:50;13.10;99.90
30371;DHT22;17164;48.590;11.410;2022-09-09T05:14:16;13.10;99.90
30371;DHT22;17164;48.590;11.410;2022-09-09T05:16:44;13.10;99.90
30371;DHT22;17164;48.590;11.410;2022-09-09T05:19:09;13.10;99.90
30371;DHT22;17164;48.590;11.410;2022-09-09T05:21:35;13.10;99.90
30371;DHT22;17164;48.590;11.410;2022-09-09T05:24:01;13.10;99.90
30371;DHT22;17164;48.590;11.410;2022-09-09T05:26:27;13.10;99.90
30371;DHT22;17164;48.590;11.410;2022-09-09T05:28:54;13.20;99.90
30371;DHT22;17164;48.590;11.410;2022-09-09T05:31:20;13.20;99.90
30371;DHT22;17164;48.590;11.410;2022-09-09T05:33:48;13.30;99.90
30371;DHT22;17164;48.590;11.410;2022-09-09T05:36:15;13.30;99.90
30371;DHT22;17164;48.590;11.410;2022-09-09T05:38:42;13.40;99.90
30371;DHT22;17164;48.590;11.410;2022-09-09T05:41:08;13.50;99.90
30371;DHT22;17164;48.590;11.410;2022-09-09T05:43:35;13.50;99.90
30371;DHT22;17164;48.590;11.410;2022-09-09T05:46:05;13.60;99.90
30371;DHT22;17164;48.590;11.410;2022-09-09T05:48:32;13.60;99.90
30371;DHT22;17164;48.590;11.410;2022-09-09T05:50:59;13.70;99.90
30371;DHT22;17164;48.590;11.410;2022-09-09T05:53:26;13.70;99.90
30371;DHT22;17164;48.590;11.410;2022-09-09T05:56:02;13.80;99.90
30371;DHT22;17164;48.590;11.410;2022-09-09T05:58:30;13.90;99.90
30371;DHT22;17164;48.590;11.410;2022-09-09T06:01:07;13.90;99.90
30371;DHT22;17164;48.590;11.410;2022-09-09T06:03:35;13.90;99.90
30371;DHT22;17164;48.590;11.410;2022-09-09T06:06:03;14.00;99.90
30371;DHT22;17164;48.590;11.410;2022-09-09T06:08:31;14.00;99.90
30371;DHT22;17164;48.590;11.410;2022-09-09T06:11:05;14.00;99.90
30371;DHT22;17164;48.590;11.410;2022-09-09T06:13:31;14.00;99.90
30371;DHT22;17164;48.590;11.410;2022-09-09T06:15:57;14.10;99.90
30371;DHT22;17164;48.590;11.410;2022-09-09T06:18:24;14.10;99.90
30371;DHT22;17164;48.590;11.410;2022-09-09T06:21:00;14.10;99.90
30371;DHT22;17164;48.590;11.410;2022-09-09T06:23:27;14.10;99.90
30371;DHT22;17164;48.590;11.410;2022-09-09T06:26:09;14.10;99.90
30371;DHT22;17164;48.590;11.410;2022-09-09T06:28:35;14.00;99.90
30371;DHT22;17164;48.590;11.410;2022-09-09T06:31:06;14.00;99.90
30371;DHT22;17164;48.590;11.410;2022-09-09T06:33:33;14.10;99.90
30371;DHT22;17164;48.590;11.410;2022-09-09T06:36:00;14.10;99.90
30371;DHT22;17164;48.590;11.410;2022-09-09T06:38:27;14.10;99.90
30371;DHT22;17164;48.590;11.410;2022-09-09T06:40:57;14.10;99.90
30371;DHT22;17164;48.590;11.410;2022-09-09T06:43:24;14.20;99.90
30371;DHT22;17164;48.590;11.410;2022-09-09T06:46:20;14.30;99.90
30371;DHT22;17164;48.590;11.410;2022-09-09T06:48:47;14.30;99.90
30371;DHT22;17164;48.590;11.410;2022-09-09T06:51:21;14.40;99.90
30371;DHT22;17164;48.590;11.410;2022-09-09T06:53:50;14.40;99.90
30371;DHT22;17164;48.590;11.410;2022-09-09T06:58:50;14.50;99.90
30371;DHT22;17164;48.590;11.410;2022-09-09T07:01:19;14.50;99.90
30371;DHT22;17164;48.590;11.410;2022-09-09T07:03:47;14.60;99.90
30371;DHT22;17164;48.590;11.410;2022-09-09T07:06:19;14.60;99.90
30371;DHT22;17164;48.590;11.410;2022-09-09T07:08:56;14.60;99.90
30371;DHT22;17164;48.590;11.410;2022-09-09T07:11:25;14.60;99.90
30371;DHT22;17164;48.590;11.410;2022-09-09T07:13:54;14.60;99.90
30371;DHT22;17164;48.590;11.410;2022-09-09T07:16:21;14.60;99.90
30371;DHT22;17164;48.590;11.410;2022-09-09T07:18:51;14.70;99.90
30371;DHT22;17164;48.590;11.410;2022-09-09T07:21:18;14.70;99.90
30371;DHT22;17164;48.590;11.410;2022-09-09T07:23:44;14.70;99.90
30371;DHT22;17164;48.590;11.410;2022-09-09T07:26:21;14.70;99.90
30371;DHT22;17164;48.590;11.410;2022-09-09T07:28:48;14.70;99.90
30371;DHT22;17164;48.590;11.410;2022-09-09T07:33:42;14.80;99.90
30371;DHT22;17164;48.590;11.410;2022-09-09T07:36:16;14.80;99.90
30371;DHT22;17164;48.590;11.410;2022-09-09T07:38:48;14.90;99.90
30371;DHT22;17164;48.590;11.410;2022-09-09T07:41:16;14.90;99.90
30371;DHT22;17164;48.590;11.410;2022-09-09T07:43:44;14.90;99.90
30371;DHT22;17164;48.590;11.410;2022-09-09T07:46:11;14.90;99.90
30371;DHT22;17164;48.590;11.410;2022-09-09T07:48:37;15.00;99.90
30371;DHT22;17164;48.590;11.410;2022-09-09T07:51:06;15.00;99.90
30371;DHT22;17164;48.590;11.410;2022-09-09T07:53:32;15.10;99.90
30371;DHT22;17164;48.590;11.410;2022-09-09T07:56:06;15.20;99.90
30371;DHT22;17164;48.590;11.410;2022-09-09T07:58:32;15.20;99.90
30371;DHT22;17164;48.590;11.410;2022-09-09T08:00:57;15.30;99.90
30371;DHT22;17164;48.590;11.410;2022-09-09T08:03:23;15.40;99.90
30371;DHT22;17164;48.590;11.410;2022-09-09T08:05:49;15.50;99.90
30371;DHT22;17164;48.590;11.410;2022-09-09T08:08:15;15.60;99.90
30371;DHT22;17164;48.590;11.410;2022-09-09T08:10:42;15.80;99.90
30371;DHT22;17164;48.590;11.410;2022-09-09T08:13:08;15.80;99.90
30371;DHT22;17164;48.590;11.410;2022-09-09T08:15:34;15.90;99.90
30371;DHT22;17164;48.590;11.410;2022-09-09T08:17:59;16.00;99.90
30371;DHT22;17164;48.590;11.410;2022-09-09T08:20:25;16.10;99.90
30371;DHT22;17164;48.590;11.410;2022-09-09T08:22:51;16.30;99.90
30371;DHT22;17164;48.590;11.410;2022-09-09T08:25:16;16.40;99.90
30371;DHT22;17164;48.590;11.410;2022-09-09T08:27:42;16.40;99.90
30371;DHT22;17164;48.590;11.410;2022-09-09T08:30:08;16.50;99.90
30371;DHT22;17164;48.590;11.410;2022-09-09T08:32:34;16.60;99.90
30371;DHT22;17164;48.590;11.410;2022-09-09T08:35:00;16.70;99.90
30371;DHT22;17164;48.590;11.410;2022-09-09T08:37:26;16.70;99.90
30371;DHT22;17164;48.590;11.410;2022-09-09T08:39:51;16.70;99.90
30371;DHT22;17164;48.590;11.410;2022-09-09T08:42:25;16.90;99.90
30371;DHT22;17164;48.590;11.410;2022-09-09T08:55:50;17.70;99.90
30371;DHT22;17164;48.590;11.410;2022-09-09T08:58:19;17.90;99.90
30371;DHT22;17164;48.590;11.410;2022-09-09T09:00:55;18.10;99.90
30371;DHT22;17164;48.590;11.410;2022-09-09T09:03:30;18.20;99.90
30371;DHT22;17164;48.590;11.410;2022-09-09T09:11:49;18.20;99.90
30371;DHT22;17164;48.590;11.410;2022-09-09T09:14:20;18.20;99.90
30371;DHT22;17164;48.590;11.410;2022-09-09T09:17:00;18.10;99.90
30371;DHT22;17164;48.590;11.410;2022-09-09T09:19:29;18.10;99.90
30371;DHT22;17164;48.590;11.410;2022-09-09T09:25:21;18.00;99.90
30371;DHT22;17164;48.590;11.410;2022-09-09T09:28:00;18.00;99.90
30371;DHT22;17164;48.590;11.410;2022-09-09T09:30:44;18.00;99.90
30371;DHT22;17164;48.590;11.410;2022-09-09T09:33:31;18.00;99.90
30371;DHT22;17164;48.590;11.410;2022-09-09T09:35:58;18.10;99.90
30371;DHT22;17164;48.590;11.410;2022-09-09T09:38:26;18.20;99.90
30371;DHT22;17164;48.590;11.410;2022-09-09T09:40:57;18.20;99.90
30371;DHT22;17164;48.590;11.410;2022-09-09T09:43:34;18.30;99.90
30371;DHT22;17164;48.590;11.410;2022-09-09T09:46:03;18.40;99.90
30371;DHT22;17164;48.590;11.410;2022-09-09T09:48:29;18.50;99.90
30371;DHT22;17164;48.590;11.410;2022-09-09T09:51:10;18.60;99.90
30371;DHT22;17164;48.590;11.410;2022-09-09T09:53:38;18.60;99.90
30371;DHT22;17164;48.590;11.410;2022-09-09T09:56:05;18.80;99.90
30371;DHT22;17164;48.590;11.410;2022-09-09T09:58:48;19.00;99.90
30371;DHT22;17164;48.590;11.410;2022-09-09T10:01:28;19.20;99.90
30371;DHT22;17164;48.590;11.410;2022-09-09T10:04:18;19.30;99.90
30371;DHT22;17164;48.590;11.410;2022-09-09T10:06:46;19.30;99.90
30371;DHT22;17164;48.590;11.410;2022-09-09T10:09:37;19.30;99.90
30371;DHT22;17164;48.590;11.410;2022-09-09T10:23:07;19.30;99.90
30371;DHT22;17164;48.590;11.410;2022-09-09T10:25:38;19.30;99.90
30371;DHT22;17164;48.590;11.410;2022-09-09T10:31:37;19.30;99.90
30371;DHT22;17164;48.590;11.410;2022-09-09T10:36:50;19.30;99.90
30371;DHT22;17164;48.590;11.410;2022-09-09T10:39:35;19.30;99.90
30371;DHT22;17164;48.590;11.410;2022-09-09T10:42:05;19.30;99.90
30371;DHT22;17164;48.590;11.410;2022-09-09T10:47:30;19.40;99.90
30371;DHT22;17164;48.590;11.410;2022-09-09T10:50:05;19.40;99.90
30371;DHT22;17164;48.590;11.410;2022-09-09T10:55:24;19.40;99.90
30371;DHT22;17164;48.590;11.410;2022-09-09T10:57:58;19.40;99.90
30371;DHT22;17164;48.590;11.410;2022-09-09T11:03:03;19.40;99.90
30371;DHT22;17164;48.590;11.410;2022-09-09T11:05:49;19.40;99.90
30371;DHT22;17164;48.590;11.410;2022-09-09T11:08:20;19.40;99.90
30371;DHT22;17164;48.590;11.410;2022-09-09T11:13:53;19.40;99.90
30371;DHT22;17164;48.590;11.410;2022-09-09T11:16:34;19.40;99.90
30371;DHT22;17164;48.590;11.410;2022-09-09T11:19:37;19.40;99.90
30371;DHT22;17164;48.590;11.410;2022-09-09T11:22:08;19.50;99.90
30371;DHT22;17164;48.590;11.410;2022-09-09T11:27:17;19.60;99.90
30371;DHT22;17164;48.590;11.410;2022-09-09T11:41:09;19.50;99.90
30371;DHT22;17164;48.590;11.410;2022-09-09T11:43:47;19.50;99.90
30371;DHT22;17164;48.590;11.410;2022-09-09T11:46:17;19.50;99.90
30371;DHT22;17164;48.590;11.410;2022-09-09T11:48:45;19.50;99.90
30371;DHT22;17164;48.590;11.410;2022-09-09T11:51:27;19.50;99.90
30371;DHT22;17164;48.590;11.410;2022-09-09T11:56:28;19.50;99.90
30371;DHT22;17164;48.590;11.410;2022-09-09T11:59:02;19.50;99.90
30371;DHT22;17164;48.590;11.410;2022-09-09T12:04:14;19.60;99.90
30371;DHT22;17164;48.590;11.410;2022-09-09T12:06:45;19.60;99.90
30371;DHT22;17164;48.590;11.410;2022-09-09T12:09:31;19.80;99.90
30371;DHT22;17164;48.590;11.410;2022-09-09T12:12:26;20.00;99.90
30371;DHT22;17164;48.590;11.410;2022-09-09T12:15:19;20.30;99.90
30371;DHT22;17164;48.590;11.410;2022-09-09T12:17:51;20.40;99.90
30371;DHT22;17164;48.590;11.410;2022-09-09T12:28:15;20.80;99.90
30371;DHT22;17164;48.590;11.410;2022-09-09T12:33:12;20.90;99.90
30371;DHT22;17164;48.590;11.410;2022-09-09T12:35:38;20.80;99.90
30371;DHT22;17164;48.590;11.410;2022-09-09T12:38:06;20.80;99.90
30371;DHT22;17164;48.590;11.410;2022-09-09T12:40:37;20.80;99.90
30371;DHT22;17164;48.590;11.410;2022-09-09T12:43:18;20.80;99.90
30371;DHT22;17164;48.590;11.410;2022-09-09T12:45:45;20.80;99.90
30371;DHT22;17164;48.590;11.410;2022-09-09T12:48:11;20.80;99.90
30371;DHT22;17164;48.590;11.410;2022-09-09T12:53:24;20.70;99.90
30371;DHT22;17164;48.590;11.410;2022-09-09T12:55:59;20.70;99.90
30371;DHT22;17164;48.590;11.410;2022-09-09T12:58:25;20.70;99.90
30371;DHT22;17164;48.590;11.410;2022-09-09T13:00:54;20.80;99.90
30371;DHT22;17164;48.590;11.410;2022-09-09T13:03:22;20.90;99.90
30371;DHT22;17164;48.590;11.410;2022-09-09T13:05:49;20.90;99.90
30371;DHT22;17164;48.590;11.410;2022-09-09T13:08:16;20.90;99.90
30371;DHT22;17164;48.590;11.410;2022-09-09T13:10:57;21.00;99.90
30371;DHT22;17164;48.590;11.410;2022-09-09T13:13:39;21.20;99.90
30371;DHT22;17164;48.590;11.410;2022-09-09T13:16:07;21.50;99.90
30371;DHT22;17164;48.590;11.410;2022-09-09T13:18:43;21.80;99.90
30371;DHT22;17164;48.590;11.410;2022-09-09T13:21:09;22.00;99.90
30371;DHT22;17164;48.590;11.410;2022-09-09T13:23:36;22.20;99.90
30371;DHT22;17164;48.590;11.410;2022-09-09T13:28:30;22.40;99.90
30371;DHT22;17164;48.590;11.410;2022-09-09T13:31:01;22.50;99.90
30371;DHT22;17164;48.590;11.410;2022-09-09T13:33:38;22.60;99.90
30371;DHT22;17164;48.590;11.410;2022-09-09T13:36:05;22.70;99.90
30371;DHT22;17164;48.590;11.410;2022-09-09T13:38:35;22.70;99.90
30371;DHT22;17164;48.590;11.410;2022-09-09T13:41:06;22.60;99.90
30371;DHT22;17164;48.590;11.410;2022-09-09T13:43:44;22.70;99.90
30371;DHT22;17164;48.590;11.410;2022-09-09T13:46:40;22.70;99.90
30371;DHT22;17164;48.590;11.410;2022-09-09T13:51:38;22.30;99.90
30371;DHT22;17164;48.590;11.410;2022-09-09T13:54:05;22.10;99.90
30371;DHT22;17164;48.590;11.410;2022-09-09T13:56:33;21.90;99.90
30371;DHT22;17164;48.590;11.410;2022-09-09T13:58:58;21.70;99.90
30371;DHT22;17164;48.590;11.410;2022-09-09T14:01:24;21.60;99.90
30371;DHT22;17164;48.590;11.410;2022-09-09T14:03:50;21.60;99.90
30371;DHT22;17164;48.590;11.410;2022-09-09T14:06:16;21.70;99.90
30371;DHT22;17164;48.590;11.410;2022-09-09T14:08:44;22.00;99.90
30371;DHT22;17164;48.590;11.410;2022-09-09T14:11:12;22.30;99.90
30371;DHT22;17164;48.590;11.410;2022-09-09T14:13:38;22.50;99.90
30371;DHT22;17164;48.590;11.410;2022-09-09T14:16:04;22.70;99.60
30371;DHT22;17164;48.590;11.410;2022-09-09T14:18:30;22.80;99.20
30371;DHT22;17164;48.590;11.410;2022-09-09T14:20:56;22.80;98.50
30371;DHT22;17164;48.590;11.410;2022-09-09T14:23:23;22.60;97.70
30371;DHT22;17164;48.590;11.410;2022-09-09T14:25:50;22.30;97.60
30371;DHT22;17164;48.590;11.410;2022-09-09T14:28:17;22.10;98.70
30371;DHT22;17164;48.590;11.410;2022-09-09T14:30:43;21.70;99.30
30371;DHT22;17164;48.590;11.410;2022-09-09T14:33:12;21.50;99.90
30371;DHT22;17164;48.590;11.410;2022-09-09T14:35:38;21.30;99.90
30371;DHT22;17164;48.590;11.410;2022-09-09T14:38:04;21.20;99.90
30371;DHT22;17164;48.590;11.410;2022-09-09T14:40:30;21.00;99.90
30371;DHT22;17164;48.590;11.410;2022-09-09T14:42:56;20.90;99.90
30371;DHT22;17164;48.590;11.410;2022-09-09T14:45:23;20.70;99.90
30371;DHT22;17164;48.590;11.410;2022-09-09T14:47:50;20.60;99.90
30371;DHT22;17164;48.590;11.410;2022-09-09T14:50:17;20.50;99.90
30371;DHT22;17164;48.590;11.410;2022-09-09T14:52:43;20.40;99.90
30371;DHT22;17164;48.590;11.410;2022-09-09T14:55:09;20.40;99.90
30371;DHT22;17164;48.590;11.410;2022-09-09T14:57:34;20.30;99.90
30371;DHT22;17164;48.590;11.410;2022-09-09T15:00:02;20.20;99.90
30371;DHT22;17164;48.590;11.410;2022-09-09T15:02:28;20.10;99.90
30371;DHT22;17164;48.590;11.410;2022-09-09T15:04:55;20.00;99.90
30371;DHT22;17164;48.590;11.410;2022-09-09T15:07:23;20.00;99.90
30371;DHT22;17164;48.590;11.410;2022-09-09T15:09:49;19.90;99.90
30371;DHT22;17164;48.590;11.410;2022-09-09T15:12:15;19.90;99.90
30371;DHT22;17164;48.590;11.410;2022-09-09T15:14:40;19.80;99.90
30371;DHT22;17164;48.590;11.410;2022-09-09T15:17:06;19.70;99.90
30371;DHT22;17164;48.590;11.410;2022-09-09T15:19:32;19.60;99.90
30371;DHT22;17164;48.590;11.410;2022-09-09T15:21:58;19.50;99.90
30371;DHT22;17164;48.590;11.410;2022-09-09T15:24:25;19.50;99.90
30371;DHT22;17164;48.590;11.410;2022-09-09T15:26:52;19.80;99.90
30371;DHT22;17164;48.590;11.410;2022-09-09T15:29:17;20.20;99.90
30371;DHT22;17164;48.590;11.410;2022-09-09T15:31:44;20.70;99.90
30371;DHT22;17164;48.590;11.410;2022-09-09T15:34:09;20.90;99.90
30371;DHT22;17164;48.590;11.410;2022-09-09T15:36:36;21.20;99.90
30371;DHT22;17164;48.590;11.410;2022-09-09T15:39:05;21.30;99.90
30371;DHT22;17164;48.590;11.410;2022-09-09T15:41:31;21.30;99.90
30371;DHT22;17164;48.590;11.410;2022-09-09T15:43:58;21.30;99.90
30371;DHT22;17164;48.590;11.410;2022-09-09T15:46:39;21.20;99.90
30371;DHT22;17164;48.590;11.410;2022-09-09T15:49:10;21.00;99.90
30371;DHT22;17164;48.590;11.410;2022-09-09T15:51:38;20.80;99.90
30371;DHT22;17164;48.590;11.410;2022-09-09T15:54:04;20.70;99.90
30371;DHT22;17164;48.590;11.410;2022-09-09T15:56:30;20.70;99.90
30371;DHT22;17164;48.590;11.410;2022-09-09T15:58:57;20.70;99.90
30371;DHT22;17164;48.590;11.410;2022-09-09T16:01:23;20.80;99.90
30371;DHT22;17164;48.590;11.410;2022-09-09T16:03:49;21.00;99.80
30371;DHT22;17164;48.590;11.410;2022-09-09T16:06:21;21.20;99.30
30371;DHT22;17164;48.590;11.410;2022-09-09T16:08:49;21.50;98.50
30371;DHT22;17164;48.590;11.410;2022-09-09T16:11:29;22.00;97.50
30371;DHT22;17164;48.590;11.410;2022-09-09T16:13:57;22.50;96.50
30371;DHT22;17164;48.590;11.410;2022-09-09T16:16:24;23.10;94.60
30371;DHT22;17164;48.590;11.410;2022-09-09T16:18:56;23.50;94.00
30371;DHT22;17164;48.590;11.410;2022-09-09T16:21:30;23.40;93.60
30371;DHT22;17164;48.590;11.410;2022-09-09T16:23:58;23.00;94.00
30371;DHT22;17164;48.590;11.410;2022-09-09T16:26:31;22.40;95.00
30371;DHT22;17164;48.590;11.410;2022-09-09T16:28:57;21.70;95.80
30371;DHT22;17164;48.590;11.410;2022-09-09T16:31:25;21.20;98.20
30371;DHT22;17164;48.590;11.410;2022-09-09T16:33:51;20.80;98.80
30371;DHT22;17164;48.590;11.410;2022-09-09T16:36:28;20.30;99.70
30371;DHT22;17164;48.590;11.410;2022-09-09T16:38:57;19.90;99.90
30371;DHT22;17164;48.590;11.410;2022-09-09T16:41:24;19.60;99.90
30371;DHT22;17164;48.590;11.410;2022-09-09T16:44:00;19.30;99.90
30371;DHT22;17164;48.590;11.410;2022-09-09T16:46:29;19.00;99.90
30371;DHT22;17164;48.590;11.410;2022-09-09T16:48:57;18.70;99.90
30371;DHT22;17164;48.590;11.410;2022-09-09T16:51:28;18.60;99.90
30371;DHT22;17164;48.590;11.410;2022-09-09T16:53:55;18.40;99.90
30371;DHT22;17164;48.590;11.410;2022-09-09T16:56:23;18.20;99.90
30371;DHT22;17164;48.590;11.410;2022-09-09T16:58:54;18.10;99.90
30371;DHT22;17164;48.590;11.410;2022-09-09T17:01:21;18.00;99.90
30371;DHT22;17164;48.590;11.410;2022-09-09T17:03:47;17.90;99.90
30371;DHT22;17164;48.590;11.410;2022-09-09T17:06:14;17.70;99.90
30371;DHT22;17164;48.590;11.410;2022-09-09T17:08:41;17.60;99.90
30371;DHT22;17164;48.590;11.410;2022-09-09T17:11:18;17.60;99.90
30371;DHT22;17164;48.590;11.410;2022-09-09T17:13:45;17.50;99.90
30371;DHT22;17164;48.590;11.410;2022-09-09T17:16:12;17.40;99.90
30371;DHT22;17164;48.590;11.410;2022-09-09T17:18:37;17.40;99.90
30371;DHT22;17164;48.590;11.410;2022-09-09T17:21:05;17.40;99.90
30371;DHT22;17164;48.590;11.410;2022-09-09T17:23:32;17.40;99.90
30371;DHT22;17164;48.590;11.410;2022-09-09T17:25:59;17.30;99.90
30371;DHT22;17164;48.590;11.410;2022-09-09T17:28:26;17.30;99.90
30371;DHT22;17164;48.590;11.410;2022-09-09T17:30:59;17.40;99.90
30371;DHT22;17164;48.590;11.410;2022-09-09T17:33:28;17.40;99.90
30371;DHT22;17164;48.590;11.410;2022-09-09T17:35:57;17.40;99.90
30371;DHT22;17164;48.590;11.410;2022-09-09T17:38:24;17.40;99.90
30371;DHT22;17164;48.590;11.410;2022-09-09T17:40:50;17.40;99.90
30371;DHT22;17164;48.590;11.410;2022-09-09T17:43:25;17.30;99.90
30371;DHT22;17164;48.590;11.410;2022-09-09T17:45:51;17.30;99.90
30371;DHT22;17164;48.590;11.410;2022-09-09T17:48:16;17.20;99.90